Time;durP1;ratioP1;P1;durP2;ratioP2;P2;SDS_P1;SDS_P2;PMS_P1;PMS_P2;Temp;Humidity;BMP_temperature;BMP_pressure;BME280_temperature;BME280_humidity;BME280_pressure;Samples;Min_cycle;Max_cycle;Signal;HPM_P1;HPM_P2
2021/03/01 00:01:50;;;;;;;20.30;12.68;;;;;;;3.41;85.94;102006.22;1740456;80;25814;-70
2021/03/01 00:04:16;;;;;;;20.48;13.62;;;;;;;3.40;85.91;102009.27;1742260;81;25814;-70
2021/03/01 00:06:43;;;;;;;22.10;14.03;;;;;;;3.36;85.86;102014.69;1742723;81;27278;-69
2021/03/01 00:09:09;;;;;;;20.90;13.40;;;;;;;3.38;85.92;102021.42;1713010;81;26608;-70
2021/03/01 00:11:35;;;;;;;21.52;14.80;;;;;;;3.39;85.87;102023.58;1736972;81;25772;-72
2021/03/01 00:14:02;;;;;;;19.10;13.13;;;;;;;3.40;85.87;102026.06;1738120;81;25789;-69
2021/03/01 00:16:28;;;;;;;19.75;13.68;;;;;;;3.38;85.77;102024.47;1742182;81;25344;-69
2021/03/01 00:18:55;;;;;;;19.48;13.10;;;;;;;3.35;85.76;102028.05;1742885;80;25749;-70
2021/03/01 00:21:21;;;;;;;20.45;12.60;;;;;;;3.37;85.86;102031.86;1746252;81;25748;-69
2021/03/01 00:23:48;;;;;;;21.37;14.55;;;;;;;3.37;85.74;102027.98;1720659;81;25385;-69
2021/03/01 00:26:14;;;;;;;26.27;15.58;;;;;;;3.36;85.76;102030.20;1741738;81;25710;-70
2021/03/01 00:28:41;;;;;;;22.22;15.03;;;;;;;3.36;85.78;102034.08;1745854;81;25544;-70
2021/03/01 00:31:07;;;;;;;20.90;14.80;;;;;;;3.33;85.73;102037.19;1741705;81;26902;-70
2021/03/01 00:33:34;;;;;;;22.75;14.53;;;;;;;3.31;85.70;102042.05;1745421;81;25773;-70
2021/03/01 00:36:00;;;;;;;22.93;14.20;;;;;;;3.28;85.74;102043.50;1741551;80;25713;-73
2021/03/01 00:38:27;;;;;;;18.87;14.65;;;;;;;3.25;85.81;102034.15;1739489;81;25757;-73
2021/03/01 00:40:54;;;;;;;20.97;14.47;;;;;;;3.25;85.85;102040.61;1728280;81;25772;-70
2021/03/01 00:43:21;;;;;;;21.85;14.60;;;;;;;3.29;85.91;102030.48;1722994;82;26514;-70
2021/03/01 00:45:47;;;;;;;20.95;14.38;;;;;;;3.31;85.84;102025.25;1722136;82;25791;-70
2021/03/01 00:48:14;;;;;;;21.60;15.15;;;;;;;3.31;85.77;102026.55;1722537;81;26413;-74
2021/03/01 00:50:40;;;;;;;19.73;13.68;;;;;;;3.31;85.79;102028.66;1726520;82;25851;-75
2021/03/01 00:53:07;;;;;;;19.87;12.45;;;;;;;3.30;85.74;102031.31;1722421;82;25864;-76
2021/03/01 00:55:33;;;;;;;21.95;14.68;;;;;;;3.30;85.79;102033.89;1709980;82;25881;-74
2021/03/01 00:58:00;;;;;;;21.07;14.85;;;;;;;3.30;85.77;102036.48;1703300;81;26004;-73
2021/03/01 01:00:26;;;;;;;18.75;13.80;;;;;;;3.30;85.78;102041.64;1724795;82;25782;-73
2021/03/01 01:02:54;;;;;;;21.50;14.45;;;;;;;3.35;85.88;102034.51;1724004;81;25820;-73
2021/03/01 01:05:25;;;;;;;26.12;16.73;;;;;;;3.33;85.74;102038.94;1723179;81;25799;-72
2021/03/01 01:07:52;;;;;;;19.85;14.95;;;;;;;3.30;85.69;102037.77;1722040;82;25765;-73
2021/03/01 01:10:18;;;;;;;20.40;14.03;;;;;;;3.28;85.75;102041.74;1724910;81;26669;-73
2021/03/01 01:12:44;;;;;;;20.02;14.23;;;;;;;3.27;85.78;102045.67;1723730;82;25817;-73
2021/03/01 01:15:12;;;;;;;21.68;15.55;;;;;;;3.30;85.76;102041.64;1726474;81;26747;-72
2021/03/01 01:17:38;;;;;;;24.32;15.68;;;;;;;3.33;85.83;102037.19;1728215;82;25747;-73
2021/03/01 01:20:11;;;;;;;21.50;14.20;;;;;;;3.36;85.67;102046.53;1731485;82;25795;-70
2021/03/01 01:22:38;;;;;;;23.55;15.45;;;;;;;3.30;85.60;102045.09;1727425;81;25772;-69
2021/03/01 01:25:07;;;;;;;20.95;15.45;;;;;;;3.29;85.68;102043.86;1730272;82;25975;-70
2021/03/01 01:27:34;;;;;;;22.60;15.03;;;;;;;3.32;85.71;102046.29;1729648;81;25856;-70
2021/03/01 01:30:00;;;;;;;22.67;14.78;;;;;;;3.31;85.70;102045.46;1729834;81;25789;-71
2021/03/01 01:32:26;;;;;;;20.45;14.38;;;;;;;3.31;85.71;102044.17;1727976;82;25812;-70
2021/03/01 01:34:53;;;;;;;26.15;15.38;;;;;;;3.32;85.59;102051.00;1729175;82;25958;-70
2021/03/01 01:37:19;;;;;;;23.10;15.28;;;;;;;3.37;85.73;102044.78;1708134;82;25776;-70
2021/03/01 01:39:46;;;;;;;21.80;15.95;;;;;;;3.40;85.62;102042.87;1731062;81;26233;-70
2021/03/01 01:42:12;;;;;;;21.68;15.35;;;;;;;3.37;85.51;102040.91;1744854;81;25723;-70
2021/03/01 01:44:38;;;;;;;23.75;15.35;;;;;;;3.36;85.61;102046.53;1744255;81;25877;-72
2021/03/01 01:47:05;;;;;;;23.50;16.17;;;;;;;3.34;85.55;102049.18;1744028;81;25926;-72
2021/03/01 01:49:31;;;;;;;23.32;14.73;;;;;;;3.36;85.61;102049.12;1742851;81;25363;-70
2021/03/01 01:51:57;;;;;;;25.02;14.18;;;;;;;3.38;85.59;102053.73;1745309;81;25751;-70
2021/03/01 01:54:24;;;;;;;21.07;14.58;;;;;;;3.36;85.48;102054.29;1721149;81;26427;-70
2021/03/01 01:56:50;;;;;;;19.52;13.48;;;;;;;3.36;85.48;102063.33;1742842;81;25775;-70
2021/03/01 01:59:17;;;;;;;20.32;14.70;;;;;;;3.36;85.52;102060.75;1742200;81;25352;-69
2021/03/01 02:01:45;;;;;;;20.92;14.45;;;;;;;3.35;85.46;102057.77;1741743;81;25767;-72
2021/03/01 02:04:34;;;;;;;23.35;14.87;;;;;;;3.38;85.55;102056.78;1722107;81;25348;-72
2021/03/01 02:07:11;;;;;;;18.45;13.78;;;;;;;3.40;85.45;102057.55;1743555;81;26503;-73
2021/03/01 02:10:07;;;;;;;23.10;15.15;;;;;;;3.43;85.42;102063.84;1720879;81;25822;-73
2021/03/01 02:12:56;;;;;;;20.85;14.28;;;;;;;3.42;85.40;102057.84;1743412;81;25731;-73
2021/03/01 02:15:44;;;;;;;20.68;15.00;;;;;;;3.46;85.45;102057.23;1741372;81;25925;-73
2021/03/01 02:18:11;;;;;;;21.70;15.78;;;;;;;3.41;85.25;102060.06;1739694;81;26399;-73
2021/03/01 02:20:45;;;;;;;22.50;15.85;;;;;;;3.40;85.34;102065.30;1742699;81;25722;-73
2021/03/01 02:23:13;;;;;;;19.02;14.65;;;;;;;3.38;85.34;102063.23;1743431;80;25843;-73
2021/03/01 02:25:48;;;;;;;22.42;15.35;;;;;;;3.36;85.34;102056.87;1743785;81;25804;-73
2021/03/01 02:28:17;;;;;;;20.30;15.15;;;;;;;3.36;85.34;102062.04;1743428;81;25782;-70
2021/03/01 02:30:49;;;;;;;22.80;14.35;;;;;;;3.34;85.32;102059.98;1740320;81;25732;-70
2021/03/01 02:33:26;;;;;;;17.75;13.32;;;;;;;3.39;85.48;102059.77;1742471;81;25913;-70
2021/03/01 02:35:57;;;;;;;22.75;15.45;;;;;;;3.41;85.37;102065.66;1738973;81;25692;-70
2021/03/01 02:38:28;;;;;;;21.30;14.35;;;;;;;3.42;85.37;102066.89;1740269;81;26238;-73
2021/03/01 02:40:57;;;;;;;24.52;16.50;;;;;;;3.44;85.28;102065.54;1741109;81;25793;-72
2021/03/01 02:43:26;;;;;;;21.50;15.70;;;;;;;3.37;85.14;102063.70;1722694;81;25803;-72
2021/03/01 02:45:55;;;;;;;20.02;14.80;;;;;;;3.36;85.28;102058.62;1747332;81;25787;-72
2021/03/01 02:48:24;;;;;;;21.90;15.18;;;;;;;3.33;85.28;102059.61;1745890;81;25869;-72
2021/03/01 02:50:51;;;;;;;20.20;14.75;;;;;;;3.32;85.30;102058.75;1722471;81;26416;-72
2021/03/01 02:53:19;;;;;;;22.93;15.95;;;;;;;3.32;85.27;102065.67;1746436;80;25830;-72
2021/03/01 02:55:48;;;;;;;22.07;15.45;;;;;;;3.34;85.41;102066.44;1747263;81;25836;-72
2021/03/01 02:58:18;;;;;;;22.60;14.93;;;;;;;3.38;85.42;102060.19;1741539;81;25861;-73
2021/03/01 03:00:46;;;;;;;24.87;15.38;;;;;;;3.40;85.33;102066.59;1748229;81;25684;-72
2021/03/01 03:03:13;;;;;;;22.25;15.30;;;;;;;3.41;85.29;102065.23;1746946;81;25784;-72
2021/03/01 03:05:43;;;;;;;22.65;16.00;;;;;;;3.43;85.25;102058.22;1748420;81;25800;-72
2021/03/01 03:08:12;;;;;;;21.87;15.45;;;;;;;3.44;85.21;102066.84;1744249;81;26473;-72
2021/03/01 03:10:41;;;;;;;23.00;14.70;;;;;;;3.46;85.15;102066.28;1744106;81;25806;-72
2021/03/01 03:13:09;;;;;;;25.60;16.23;;;;;;;3.43;85.06;102073.72;1741770;81;25953;-72
2021/03/01 03:15:39;;;;;;;22.00;15.58;;;;;;;3.44;85.15;102075.88;1740468;81;25726;-73
2021/03/01 03:18:12;;;;;;;21.37;15.15;;;;;;;3.42;85.15;102073.36;1746248;81;25777;-69
2021/03/01 03:20:39;;;;;;;20.20;14.98;;;;;;;3.42;85.15;102078.53;1748553;80;25899;-69
2021/03/01 03:23:07;;;;;;;21.95;14.93;;;;;;;3.39;85.05;102076.09;1748548;81;25293;-69
2021/03/01 03:25:34;;;;;;;21.05;15.45;;;;;;;3.38;85.23;102076.98;1747512;81;25801;-69
2021/03/01 03:28:03;;;;;;;22.45;14.65;;;;;;;3.36;85.01;102084.47;1746399;80;25844;-69
2021/03/01 03:30:29;;;;;;;22.05;15.15;;;;;;;3.34;85.03;102086.66;1747467;81;25822;-69
2021/03/01 03:32:56;;;;;;;18.45;13.38;;;;;;;3.35;85.12;102079.73;1745546;81;25826;-69
2021/03/01 03:35:23;;;;;;;22.55;14.65;;;;;;;3.36;85.07;102081.88;1744468;80;25830;-69
2021/03/01 03:38:07;;;;;;;19.98;14.07;;;;;;;3.37;85.11;102087.42;1747622;81;25876;-69
2021/03/01 03:40:35;;;;;;;23.05;15.45;;;;;;;3.38;85.10;102092.50;1741222;81;25770;-69
2021/03/01 03:43:03;;;;;;;21.50;15.78;;;;;;;3.37;85.05;102094.71;1738962;81;25955;-69
2021/03/01 03:45:30;;;;;;;21.48;15.60;;;;;;;3.34;84.99;102096.98;1744484;81;25814;-69
2021/03/01 03:48:04;;;;;;;20.43;15.68;;;;;;;3.31;85.02;102098.90;1742553;81;25791;-69
2021/03/01 03:50:33;;;;;;;21.52;15.13;;;;;;;3.29;85.09;102102.00;1744933;81;25727;-69
2021/03/01 03:53:10;;;;;;;24.87;16.05;;;;;;;3.27;85.17;102102.09;1739993;81;25800;-69
2021/03/01 03:55:39;;;;;;;23.20;15.63;;;;;;;3.33;85.31;102100.95;1743115;81;25899;-69
2021/03/01 03:58:09;;;;;;;22.35;14.78;;;;;;;3.33;85.14;102106.12;1741849;81;25755;-69
2021/03/01 04:00:37;;;;;;;20.85;14.43;;;;;;;3.34;85.18;102111.20;1743292;81;25553;-69
2021/03/01 04:03:13;;;;;;;24.18;15.40;;;;;;;3.35;85.14;102112.03;1744927;81;25806;-69
2021/03/01 04:05:41;;;;;;;22.40;16.42;;;;;;;3.41;85.27;102110.89;1745101;81;25792;-70
2021/03/01 04:08:12;;;;;;;20.92;15.48;;;;;;;3.45;85.17;102109.39;1741426;81;25772;-69
2021/03/01 04:10:45;;;;;;;24.57;17.27;;;;;;;3.46;85.04;102109.75;1740280;81;25865;-70
2021/03/01 04:13:13;;;;;;;22.30;16.30;;;;;;;3.46;85.08;102105.88;1740902;81;25731;-69
2021/03/01 04:15:47;;;;;;;22.82;15.75;;;;;;;3.40;84.85;102109.23;1744247;81;25770;-70
2021/03/01 04:18:22;;;;;;;20.57;14.30;;;;;;;3.39;85.02;102103.70;1743177;81;25871;-71
2021/03/01 04:20:51;;;;;;;18.40;13.85;;;;;;;3.40;85.06;102098.90;1741580;81;25727;-69
2021/03/01 04:23:20;;;;;;;20.55;14.43;;;;;;;3.43;85.01;102106.03;1741496;81;25783;-70
2021/03/01 04:25:48;;;;;;;18.32;14.05;;;;;;;3.43;84.78;102103.45;1742220;81;25692;-70
2021/03/01 04:28:15;;;;;;;24.07;13.80;;;;;;;3.43;84.88;102104.74;1745233;81;26088;-69
2021/03/01 04:30:44;;;;;;;16.57;12.88;;;;;;;3.43;84.79;102108.62;1743440;81;25892;-70
2021/03/01 04:33:11;;;;;;;21.07;14.75;;;;;;;3.40;84.71;102109.23;1721413;81;25859;-70
2021/03/01 04:35:39;;;;;;;22.45;14.85;;;;;;;3.33;84.71;102104.37;1744540;81;25864;-69
2021/03/01 04:38:05;;;;;;;23.70;15.90;;;;;;;3.30;84.79;102101.94;1721821;81;25930;-69
2021/03/01 04:40:32;;;;;;;21.23;14.13;;;;;;;3.30;84.85;102103.23;1743534;81;25943;-70
2021/03/01 04:42:59;;;;;;;22.40;14.70;;;;;;;3.30;84.92;102096.78;1709051;82;25834;-70
2021/03/01 04:45:26;;;;;;;21.90;15.25;;;;;;;3.31;84.99;102101.02;1729117;81;26407;-73
2021/03/01 04:47:53;;;;;;;20.88;14.63;;;;;;;3.33;85.01;102104.84;1728375;82;25765;-73
2021/03/01 04:50:21;;;;;;;24.72;14.95;;;;;;;3.31;84.94;102102.77;1706572;82;25792;-73
2021/03/01 04:52:49;;;;;;;19.82;14.28;;;;;;;3.32;85.06;102101.85;1728325;81;25863;-73
2021/03/01 04:55:16;;;;;;;24.52;15.40;;;;;;;3.36;85.02;102103.85;1710636;82;26226;-73
2021/03/01 04:57:43;;;;;;;20.70;13.78;;;;;;;3.34;84.90;102112.50;1729985;82;25763;-73
2021/03/01 05:00:11;;;;;;;24.40;15.15;;;;;;;3.33;84.95;102117.76;1725007;82;25750;-73
2021/03/01 05:02:39;;;;;;;20.88;14.45;;;;;;;3.20;84.88;102099.42;1728293;82;25793;-73
2021/03/01 05:05:08;;;;;;;21.80;13.98;;;;;;;3.31;84.94;102116.52;1731372;82;26270;-72
2021/03/01 05:07:36;;;;;;;20.37;14.68;;;;;;;3.28;84.95;102122.31;1731937;82;26537;-73
2021/03/01 05:10:05;;;;;;;21.05;14.47;;;;;;;3.23;85.01;102122.52;1729605;82;25726;-73
2021/03/01 05:12:32;;;;;;;20.02;13.60;;;;;;;3.22;85.11;102121.29;1728927;82;25815;-73
2021/03/01 05:14:58;;;;;;;23.50;14.03;;;;;;;3.25;85.15;102126.34;1729952;82;26234;-73
2021/03/01 05:17:24;;;;;;;20.10;15.60;;;;;;;3.24;84.96;102125.47;1730839;82;26650;-70
2021/03/01 05:19:51;;;;;;;25.72;15.60;;;;;;;3.24;85.00;102133.22;1726213;82;25786;-69
2021/03/01 05:22:17;;;;;;;28.23;17.62;;;;;;;3.22;84.96;102126.02;1723315;82;26296;-70
2021/03/01 05:24:44;;;;;;;26.30;17.77;;;;;;;3.21;85.07;102129.50;1728988;81;25707;-70
2021/03/01 05:27:10;;;;;;;25.57;16.70;;;;;;;3.22;85.14;102130.33;1728551;82;25757;-70
2021/03/01 05:29:36;;;;;;;25.08;17.07;;;;;;;3.25;85.24;102140.55;1725480;82;25761;-70
2021/03/01 05:32:05;;;;;;;30.82;17.85;;;;;;;3.24;85.32;102150.02;1731383;82;25907;-70
2021/03/01 05:34:32;;;;;;;21.48;15.08;;;;;;;3.24;85.26;102146.61;1727935;82;26607;-70
2021/03/01 05:36:59;;;;;;;21.75;15.48;;;;;;;3.24;85.28;102155.65;1710130;82;25755;-70
2021/03/01 05:39:25;;;;;;;23.62;15.80;;;;;;;3.21;85.24;102151.92;1722678;82;25337;-69
2021/03/01 05:41:54;;;;;;;23.67;15.75;;;;;;;3.17;85.10;102155.12;1721821;82;26471;-69
2021/03/01 05:44:20;;;;;;;23.92;17.27;;;;;;;3.13;85.15;102150.98;1716126;83;25793;-70
2021/03/01 05:46:49;;;;;;;22.30;15.48;;;;;;;3.21;85.33;102160.97;1719716;82;26411;-70
2021/03/01 05:49:16;;;;;;;26.52;14.98;;;;;;;3.22;85.31;102162.63;1715809;82;25431;-70
2021/03/01 05:51:47;;;;;;;19.60;13.38;;;;;;;3.19;85.17;102164.06;1719991;82;26054;-70
2021/03/01 05:54:16;;;;;;;24.90;15.63;;;;;;;3.18;85.26;102164.53;1717683;83;25868;-70
2021/03/01 05:56:42;;;;;;;25.40;14.15;;;;;;;3.18;85.26;102167.58;1718705;82;26492;-70
2021/03/01 05:59:09;;;;;;;22.52;15.93;;;;;;;3.15;85.26;102178.89;1691986;83;26333;-70
2021/03/01 06:01:38;;;;;;;22.25;15.53;;;;;;;3.14;85.33;102175.93;1717854;83;25944;-70
2021/03/01 06:04:06;;;;;;;20.65;14.25;;;;;;;3.10;85.35;102186.84;1698612;83;25327;-70
2021/03/01 06:06:32;;;;;;;19.52;13.68;;;;;;;3.14;85.55;102195.31;1720466;83;25729;-70
2021/03/01 06:08:59;;;;;;;17.10;12.05;;;;;;;3.16;85.42;102196.52;1720145;83;25772;-70
2021/03/01 06:11:25;;;;;;;16.93;12.20;;;;;;;3.18;85.36;102195.99;1710093;82;26682;-69
2021/03/01 06:13:52;;;;;;;16.82;12.28;;;;;;;3.20;85.39;102190.31;1728083;81;26023;-71
2021/03/01 06:16:18;;;;;;;18.90;13.15;;;;;;;3.24;85.28;102193.11;1711183;81;25790;-70
2021/03/01 06:18:45;;;;;;;19.02;13.10;;;;;;;3.28;85.23;102194.20;1716949;82;25633;-70
2021/03/01 06:21:18;;;;;;;19.25;13.43;;;;;;;3.30;85.02;102196.69;1717555;82;25916;-69
2021/03/01 06:23:45;;;;;;;19.98;13.15;;;;;;;3.27;84.90;102192.97;1720890;83;25716;-70
2021/03/01 06:26:31;;;;;;;20.88;13.72;;;;;;;3.27;85.01;102197.70;1717267;82;26466;-70
2021/03/01 06:29:07;;;;;;;20.82;13.83;;;;;;;3.29;85.17;102202.78;1718011;82;25773;-69
2021/03/01 06:31:46;;;;;;;22.58;15.58;;;;;;;3.24;84.98;102207.33;1713416;83;26528;-70
2021/03/01 06:34:30;;;;;;;23.40;13.95;;;;;;;3.20;85.06;102204.06;1712665;83;25745;-69
2021/03/01 06:37:13;;;;;;;19.95;13.72;;;;;;;3.20;85.15;102209.22;1718743;82;25929;-70
2021/03/01 06:39:47;;;;;;;21.42;14.23;;;;;;;3.14;85.07;102201.77;1715327;82;25973;-70
2021/03/01 06:42:27;;;;;;;19.82;13.90;;;;;;;3.10;85.11;102202.80;1728136;81;25652;-70
2021/03/01 06:45:04;;;;;;;21.80;14.05;;;;;;;3.09;85.24;102205.02;1740664;81;25738;-70
2021/03/01 06:47:53;;;;;;;23.62;14.50;;;;;;;3.09;85.26;102212.30;1736157;81;26472;-70
2021/03/01 06:50:37;;;;;;;23.27;12.40;;;;;;;3.12;85.46;102217.78;1739135;81;25779;-70
2021/03/01 06:53:14;;;;;;;24.45;14.20;;;;;;;3.14;85.35;102215.98;1741773;81;25782;-70
2021/03/01 06:56:04;;;;;;;22.00;14.85;;;;;;;3.06;85.35;102203.41;1740344;81;25759;-70
2021/03/01 06:58:39;;;;;;;27.82;17.57;;;;;;;3.20;85.46;102227.77;1738434;81;25870;-70
2021/03/01 07:01:18;;;;;;;28.67;16.70;;;;;;;3.24;85.41;102228.00;1737469;81;25297;-70
2021/03/01 07:03:51;;;;;;;27.13;17.50;;;;;;;3.27;85.36;102230.00;1739801;81;25813;-70
2021/03/01 07:06:19;;;;;;;31.57;18.37;;;;;;;3.23;85.22;102229.75;1737146;81;25831;-70
2021/03/01 07:08:55;;;;;;;28.70;18.73;;;;;;;3.18;85.12;102225.70;1737383;81;25827;-73
2021/03/01 07:11:32;;;;;;;27.50;16.35;;;;;;;3.17;85.29;102231.33;1735415;81;25751;-73
2021/03/01 07:14:09;;;;;;;24.25;13.68;;;;;;;3.18;85.34;102229.58;1738814;81;25709;-72
2021/03/01 07:16:52;;;;;;;20.85;12.55;;;;;;;3.17;85.25;102226.16;1740266;81;25705;-73
2021/03/01 07:19:31;;;;;;;20.88;15.03;;;;;;;3.13;85.18;102223.32;1733996;81;25659;-75
2021/03/01 07:22:05;;;;;;;22.60;14.75;;;;;;;3.10;85.27;102220.89;1730848;81;25746;-72
2021/03/01 07:24:32;;;;;;;26.48;15.70;;;;;;;3.13;85.40;102221.20;1739488;81;27256;-73
2021/03/01 07:27:01;;;;;;;20.65;14.50;;;;;;;3.16;85.45;102221.89;1740771;81;25792;-72
2021/03/01 07:29:34;;;;;;;24.05;15.40;;;;;;;3.12;85.34;102226.83;1714280;81;25837;-72
2021/03/01 07:32:04;;;;;;;23.02;15.32;;;;;;;3.13;85.51;102226.36;1737925;81;25763;-72
2021/03/01 07:34:32;;;;;;;26.45;16.93;;;;;;;3.12;85.47;102226.83;1726781;81;25731;-71
2021/03/01 07:37:00;;;;;;;26.68;16.93;;;;;;;3.08;85.38;102223.98;1741331;81;25848;-73
2021/03/01 07:39:28;;;;;;;26.75;16.42;;;;;;;3.02;85.47;102234.14;1737990;81;25769;-74
2021/03/01 07:41:56;;;;;;;27.22;15.68;;;;;;;2.95;85.54;102225.02;1718574;81;26002;-74
2021/03/01 07:44:29;;;;;;;22.05;13.85;;;;;;;2.86;85.88;102221.54;1717801;81;25478;-74
2021/03/01 07:46:57;;;;;;;22.55;11.85;;;;;;;2.86;85.88;102221.54;1738205;81;26477;-76
2021/03/01 07:49:45;;;;;;;20.30;11.88;;;;;;;2.92;85.62;102239.37;1739494;81;25709;-75
2021/03/01 07:52:26;;;;;;;16.97;10.78;;;;;;;2.87;85.71;102243.44;1742068;81;25801;-76
2021/03/01 07:54:59;;;;;;;16.70;10.68;;;;;;;2.83;85.62;102236.72;1740641;81;26799;-75
2021/03/01 07:57:30;;;;;;;20.90;11.03;;;;;;;2.87;85.77;102242.14;1744014;81;26056;-76
2021/03/01 07:59:59;;;;;;;15.70;10.30;;;;;;;2.92;85.86;102237.21;1738016;81;25868;-75
2021/03/01 08:02:31;;;;;;;19.42;12.15;;;;;;;2.92;85.90;102237.21;1739213;81;25769;-76
2021/03/01 08:05:00;;;;;;;18.77;11.93;;;;;;;2.88;85.82;102246.39;1743379;81;25765;-76
2021/03/01 08:07:43;;;;;;;18.35;10.98;;;;;;;2.91;85.98;102251.05;1715850;81;38114;-74
2021/03/01 08:10:20;;;;;;;19.87;12.50;;;;;;;2.85;86.15;102251.70;1740321;81;25819;-73
2021/03/01 08:12:56;;;;;;;20.88;13.32;;;;;;;2.77;86.08;102256.36;1737765;81;25911;-74
2021/03/01 08:15:27;;;;;;;21.65;13.28;;;;;;;2.74;86.26;102259.08;1739352;81;25816;-72
2021/03/01 08:17:54;;;;;;;24.10;14.50;;;;;;;2.75;86.18;102265.08;1720128;81;25831;-73
2021/03/01 08:20:28;;;;;;;22.00;13.85;;;;;;;2.77;86.37;102266.69;1738890;81;25897;-73
2021/03/01 08:23:10;;;;;;;24.60;14.45;;;;;;;2.91;86.53;102275.12;1740392;81;25772;-74
2021/03/01 08:25:52;;;;;;;22.50;13.93;;;;;;;2.91;86.53;102275.12;1739556;81;25794;-74
2021/03/01 08:28:35;;;;;;;23.02;14.53;;;;;;;2.88;86.46;102264.92;1729321;81;26413;-74
2021/03/01 08:31:09;;;;;;;26.60;15.60;;;;;;;2.93;86.37;102281.06;1736009;81;26179;-73
2021/03/01 08:33:37;;;;;;;26.05;17.65;;;;;;;2.94;86.43;102283.19;1657543;85;25871;-73
2021/03/01 08:36:11;;;;;;;28.32;17.37;;;;;;;2.82;86.46;102263.91;1657670;84;25859;-73
2021/03/01 08:38:49;;;;;;;30.17;15.35;;;;;;;2.93;86.70;102285.39;1656015;84;25809;-73
2021/03/01 08:41:23;;;;;;;23.77;14.73;;;;;;;2.95;86.77;102289.59;1655859;84;25793;-73
2021/03/01 08:43:52;;;;;;;22.50;13.90;;;;;;;2.92;86.76;102284.98;1648229;86;25624;-73
2021/03/01 08:46:21;;;;;;;23.55;12.85;;;;;;;2.93;86.79;102287.52;1655284;85;25837;-71
2021/03/01 08:48:51;;;;;;;21.70;14.18;;;;;;;2.83;86.79;102274.16;1655119;85;25975;-71
2021/03/01 08:51:19;;;;;;;21.93;13.32;;;;;;;2.91;86.75;102294.95;1651724;85;25317;-70
2021/03/01 08:53:46;;;;;;;17.48;11.55;;;;;;;2.93;86.82;102292.69;1655779;85;25776;-70
2021/03/01 08:56:22;;;;;;;21.20;12.53;;;;;;;2.93;86.94;102300.89;1653948;85;25895;-71
2021/03/01 08:58:49;;;;;;;18.77;12.58;;;;;;;2.92;86.62;102310.81;1642333;85;25829;-70
2021/03/01 09:01:15;;;;;;;20.52;12.53;;;;;;;2.88;86.75;102312.24;1653815;85;27089;-70
2021/03/01 09:03:46;;;;;;;20.60;13.15;;;;;;;2.90;86.58;102308.31;1654887;85;25816;-74
2021/03/01 09:06:21;;;;;;;20.30;13.72;;;;;;;2.93;86.68;102299.59;1654784;85;25869;-74
2021/03/01 09:08:54;;;;;;;23.27;14.68;;;;;;;2.95;86.67;102310.70;1655277;85;25847;-74
2021/03/01 09:11:30;;;;;;;22.02;13.93;;;;;;;2.94;86.70;102315.01;1696509;83;26431;-73
2021/03/01 09:14:03;;;;;;;20.82;13.48;;;;;;;2.91;86.54;102328.52;1721015;82;25854;-73
2021/03/01 09:16:33;;;;;;;26.05;13.50;;;;;;;2.90;86.86;102334.14;1723932;82;25760;-74
2021/03/01 09:19:10;;;;;;;22.30;12.85;;;;;;;2.93;86.80;102322.84;1721681;81;26714;-75
2021/03/01 09:21:41;;;;;;;25.72;14.30;;;;;;;2.95;86.85;102323.16;1717480;82;25775;-74
2021/03/01 09:24:11;;;;;;;23.45;13.18;;;;;;;2.79;86.87;102293.28;1722167;83;25767;-71
2021/03/01 09:26:44;;;;;;;22.13;12.68;;;;;;;2.93;86.74;102322.84;1723102;82;25709;-72
2021/03/01 09:29:19;;;;;;;22.87;13.80;;;;;;;2.93;86.87;102321.55;1720409;82;25750;-71
2021/03/01 09:31:49;;;;;;;22.40;13.98;;;;;;;2.93;86.86;102328.01;1706644;83;25855;-71
2021/03/01 09:34:18;;;;;;;22.35;13.60;;;;;;;2.97;86.94;102311.45;1720104;82;26049;-71
2021/03/01 09:36:49;;;;;;;21.80;14.68;;;;;;;3.00;86.98;102316.48;1718768;82;25927;-76
2021/03/01 09:39:25;;;;;;;20.15;13.18;;;;;;;3.04;86.97;102323.20;1702544;83;25838;-74
2021/03/01 09:41:54;;;;;;;23.55;13.95;;;;;;;3.05;86.81;102327.00;1720345;83;25730;-73
2021/03/01 09:44:28;;;;;;;24.20;14.45;;;;;;;2.99;86.75;102314.36;1741701;80;26505;-74
2021/03/01 09:46:57;;;;;;;23.15;13.68;;;;;;;3.11;86.80;102318.16;1745516;81;25776;-71
2021/03/01 09:49:26;;;;;;;21.75;14.87;;;;;;;3.11;86.80;102318.16;1744571;81;25412;-75
2021/03/01 09:51:53;;;;;;;24.25;14.93;;;;;;;3.15;86.73;102322.73;1739515;81;26078;-74
2021/03/01 09:54:25;;;;;;;21.10;14.13;;;;;;;3.18;86.78;102321.30;1741639;80;25793;-71
2021/03/01 09:56:55;;;;;;;22.82;14.87;;;;;;;3.20;86.61;102332.41;1717223;81;27373;-73
2021/03/01 09:59:39;;;;;;;29.35;15.30;;;;;;;3.15;86.68;102335.19;1737678;81;33268;-74
2021/03/01 10:02:20;;;;;;;25.75;16.40;;;;;;;3.15;86.68;102335.19;1737522;80;25937;-73
2021/03/01 10:04:47;;;;;;;23.92;16.32;;;;;;;3.17;86.94;102343.72;1745351;81;25861;-72
2021/03/01 10:07:27;;;;;;;26.90;16.40;;;;;;;3.04;87.16;102322.75;1740698;81;26692;-74
2021/03/01 10:09:56;;;;;;;25.23;16.02;;;;;;;3.17;87.13;102340.30;1738778;81;25905;-73
2021/03/01 10:12:24;;;;;;;24.52;17.57;;;;;;;3.15;87.00;102344.23;1716680;81;25762;-73
2021/03/01 10:14:58;;;;;;;30.88;18.67;;;;;;;3.16;87.05;102348.94;1740993;81;25706;-74
2021/03/01 10:17:31;;;;;;;30.02;20.62;;;;;;;3.18;86.98;102344.09;1739975;81;25854;-73
2021/03/01 10:20:11;;;;;;;23.98;14.78;;;;;;;3.22;87.00;102343.50;1740463;81;25821;-73
2021/03/01 10:23:07;;;;;;;25.17;16.52;;;;;;;3.21;87.01;102347.83;1730809;81;26678;-73
2021/03/01 10:25:40;;;;;;;23.05;16.77;;;;;;;3.22;86.92;102346.08;1727030;81;25874;-73
2021/03/01 10:28:30;;;;;;;32.90;20.10;;;;;;;3.23;86.85;102349.06;1754553;80;26445;-74
2021/03/01 10:31:11;;;;;;;26.97;17.20;;;;;;;3.23;86.85;102349.06;1759431;80;34881;-75
2021/03/01 10:34:04;;;;;;;29.15;16.55;;;;;;;3.30;86.98;102356.48;1759044;80;25754;-74
2021/03/01 10:36:52;;;;;;;27.73;18.52;;;;;;;3.29;86.87;102355.25;1736901;81;25827;-74
2021/03/01 10:39:39;;;;;;;31.42;18.57;;;;;;;3.34;86.83;102356.72;1759550;80;25913;-74
2021/03/01 10:42:22;;;;;;;27.55;18.90;;;;;;;3.34;86.83;102356.72;1760114;80;26369;-75
2021/03/01 10:44:57;;;;;;;30.35;19.85;;;;;;;3.36;86.75;102358.41;1758733;80;26455;-74
2021/03/01 10:47:34;;;;;;;30.35;19.15;;;;;;;3.38;86.76;102359.99;1795067;79;25695;-74
2021/03/01 10:50:19;;;;;;;33.42;21.85;;;;;;;3.36;86.53;102357.12;1792288;79;25700;-74
2021/03/01 10:52:46;;;;;;;30.10;20.05;;;;;;;3.33;86.62;102355.52;1794042;78;26450;-74
2021/03/01 10:55:13;;;;;;;27.62;18.60;;;;;;;3.27;86.64;102339.83;1795040;78;25892;-75
2021/03/01 10:57:39;;;;;;;33.70;17.60;;;;;;;3.36;86.58;102359.70;1774183;79;25838;-75
2021/03/01 11:00:07;;;;;;;24.02;16.30;;;;;;;3.36;86.62;102344.20;1791877;79;25793;-75
2021/03/01 11:02:33;;;;;;;29.37;18.85;;;;;;;3.36;86.52;102340.32;1794298;79;26613;-75
2021/03/01 11:05:00;;;;;;;28.32;17.70;;;;;;;3.37;86.52;102337.66;1791892;78;26396;-75
2021/03/01 11:07:27;;;;;;;26.07;15.85;;;;;;;3.25;86.38;102318.84;1793721;79;26477;-74
2021/03/01 11:09:54;;;;;;;27.07;17.67;;;;;;;3.33;86.49;102340.84;1791619;79;25781;-73
2021/03/01 11:12:20;;;;;;;30.12;19.75;;;;;;;3.30;86.50;102338.39;1792827;79;25653;-73
2021/03/01 11:14:46;;;;;;;29.65;16.85;;;;;;;3.35;86.61;102345.92;1794863;79;25848;-73
2021/03/01 11:17:13;;;;;;;28.10;18.77;;;;;;;3.38;86.56;102348.82;1792425;78;25973;-73
2021/03/01 11:19:40;;;;;;;31.40;19.55;;;;;;;3.41;86.55;102340.50;1790397;79;25779;-73
2021/03/01 11:22:06;;;;;;;29.25;19.90;;;;;;;3.46;86.49;102342.85;1793860;79;25674;-73
2021/03/01 11:24:32;;;;;;;35.75;22.27;;;;;;;3.52;86.46;102336.13;1795478;79;25774;-73
2021/03/01 11:26:59;;;;;;;34.00;22.07;;;;;;;3.58;86.46;102333.72;1770985;78;25774;-74
2021/03/01 11:29:25;;;;;;;37.28;23.90;;;;;;;3.63;86.39;102327.85;1793087;79;26481;-74
2021/03/01 11:31:51;;;;;;;35.15;24.57;;;;;;;3.64;86.25;102323.92;1797040;79;26494;-73
2021/03/01 11:34:18;;;;;;;30.10;20.10;;;;;;;3.64;86.30;102320.04;1794888;79;25322;-74